Terminal Aerodrome Forecast
Issued by NWS Dodge City, KS

Home | Current Version | Previous Version | Graphics & Text | Print | Product List | Glossary Off
Versions: 1 2 3 4 5 6 7 8 9 10 11 12 13 14 15 16 17 18

000
FTUS43 KDDC 192343 RRA
TAFDDC
TAF
KDDC 192343Z 2000/2024 18011G24KT P6SM SKC
     FM200600 19014G25KT P6SM SKC
     FM200800 33010G19KT P6SM SKC
     FM201400 36012G27KT P6SM SKC
     FM201700 03011KT P6SM SKC
     FM202300 09007KT P6SM SKC=

USA.gov is the U.S. government's official web portal to all federal, state and local government web resources and services.